Haypoint, Minnesota
Current Conditions -  °F | °C
As of 4:15 AM on Tuesday 27 Jan 2015 (Local Time) from KGPZ Reporting Station
Overcast Overcast  
Wind Chill: 27°   Ceiling: 1100
Heat Index: 27°   Visibility: 10mi
Dew Point: 21°   Wind: 3mph
Humidity: 80%   Direction: 360°N
Pressure: 30.04"   Gusts: NA
Location:  47.0392°N, 93.6273°W
Report Text: KGPZ 271015Z AUTO 36003KT 10SM OVC011 M03/M06 A3004 RMK AO1
Loading
Personal Weather Stations






























Interactive Weather Map New forecast layout! Learn more

10-Day Weather Forecast

Advertisements
Track Severe Weather on mobile